Time;durP1;ratioP1;P1;durP2;ratioP2;P2;SDS_P1;SDS_P2;PMS_P1;PMS_P2;Temp;Humidity;BMP_temperature;BMP_pressure;BME280_temperature;BME280_humidity;BME280_pressure;Samples;Min_cycle;Max_cycle;Signal;HPM_P1;HPM_P2
2022/03/09 00:02:09;;;;;;;7.25;3.75;;;1.60;99.90;;;;;;5094584;28;20040;-75
2022/03/09 00:04:34;;;;;;;7.28;4.18;;;1.60;99.90;;;;;;5094240;28;20093;-76
2022/03/09 00:07:00;;;;;;;8.93;3.72;;;1.60;99.90;;;;;;5094498;28;20047;-76
2022/03/09 00:09:26;;;;;;;8.33;3.90;;;1.60;99.90;;;;;;5094554;28;20040;-75
2022/03/09 00:11:52;;;;;;;8.15;4.22;;;1.50;99.90;;;;;;5093876;28;20051;-75
2022/03/09 00:14:17;;;;;;;5.80;3.92;;;1.50;99.90;;;;;;5093492;28;20048;-75
2022/03/09 00:16:43;;;;;;;7.68;4.22;;;1.50;99.90;;;;;;5094411;28;20392;-76
2022/03/09 00:19:09;;;;;;;7.40;3.80;;;1.50;99.90;;;;;;5094292;28;20071;-74
2022/03/09 00:21:34;;;;;;;6.63;3.83;;;1.50;99.90;;;;;;5094295;28;20044;-76
2022/03/09 00:24:00;;;;;;;9.27;4.40;;;1.40;99.90;;;;;;5094364;28;20036;-75
2022/03/09 00:26:25;;;;;;;7.55;4.25;;;1.30;99.90;;;;;;5094101;28;20480;-76
2022/03/09 00:28:51;;;;;;;7.05;4.20;;;1.30;99.90;;;;;;5092924;28;20423;-76
2022/03/09 00:31:16;;;;;;;7.45;4.53;;;1.40;99.90;;;;;;5094114;28;20400;-75
2022/03/09 00:33:42;;;;;;;7.40;4.22;;;1.20;99.90;;;;;;5094066;28;20044;-75
2022/03/09 00:36:07;;;;;;;6.75;4.13;;;1.20;99.90;;;;;;5094095;28;20055;-75
2022/03/09 00:38:33;;;;;;;8.95;4.30;;;1.10;99.90;;;;;;5094025;28;20048;-75
2022/03/09 00:41:01;;;;;;;6.63;4.22;;;1.10;99.90;;;;;;5093871;28;20040;-76
2022/03/09 00:43:27;;;;;;;6.93;4.38;;;1.10;99.90;;;;;;5093833;28;20142;-76
2022/03/09 00:45:53;;;;;;;8.37;4.30;;;1.10;99.90;;;;;;5093659;28;20496;-75
2022/03/09 00:48:19;;;;;;;6.78;4.18;;;1.00;99.90;;;;;;5094451;28;20694;-75
2022/03/09 00:50:45;;;;;;;5.32;3.70;;;1.10;99.90;;;;;;5094040;28;20127;-76
2022/03/09 00:53:11;;;;;;;8.48;4.38;;;1.00;99.90;;;;;;5093918;28;20050;-76
2022/03/09 00:55:37;;;;;;;9.82;5.07;;;1.00;99.90;;;;;;5093779;28;20130;-75
2022/03/09 00:58:02;;;;;;;6.53;4.50;;;1.10;99.90;;;;;;5093739;28;20055;-76
2022/03/09 01:00:28;;;;;;;6.97;4.55;;;0.90;99.90;;;;;;5094341;28;20102;-76
2022/03/09 01:02:53;;;;;;;9.32;4.57;;;0.90;99.90;;;;;;5093721;28;20484;-75
2022/03/09 01:05:19;;;;;;;9.55;4.88;;;;;;;;;;5094090;28;20039;-75
2022/03/09 01:07:45;;;;;;;7.43;4.13;;;0.90;99.90;;;;;;5093620;28;20094;-75
2022/03/09 01:10:11;;;;;;;7.05;4.20;;;0.90;99.90;;;;;;5093539;28;20040;-75
2022/03/09 01:12:37;;;;;;;9.30;4.80;;;0.90;99.90;;;;;;5092245;28;20060;-76
2022/03/09 01:15:04;;;;;;;7.13;4.28;;;0.90;99.90;;;;;;5093655;28;20051;-76
2022/03/09 01:17:29;;;;;;;9.10;4.35;;;0.90;99.90;;;;;;5092418;28;20174;-76
2022/03/09 01:19:55;;;;;;;8.77;5.20;;;1.00;99.90;;;;;;5092739;28;20079;-75
2022/03/09 01:22:21;;;;;;;7.63;4.50;;;0.90;99.90;;;;;;5092401;28;20079;-75
2022/03/09 01:24:47;;;;;;;8.18;5.00;;;1.00;99.90;;;;;;5095504;28;20048;-75
2022/03/09 01:27:13;;;;;;;7.80;4.97;;;1.00;99.90;;;;;;5097025;28;20040;-74
2022/03/09 01:29:38;;;;;;;9.85;4.45;;;1.00;99.90;;;;;;5097690;28;20044;-74
2022/03/09 01:32:04;;;;;;;7.85;4.65;;;0.90;99.90;;;;;;5097490;28;20048;-76
2022/03/09 01:34:30;;;;;;;7.53;4.88;;;0.90;99.90;;;;;;5097401;28;20046;-75
2022/03/09 01:36:56;;;;;;;8.95;5.25;;;0.30;99.90;;;;;;5097527;28;20437;-74
2022/03/09 01:39:21;;;;;;;10.82;5.10;;;0.80;99.90;;;;;;5097362;28;20044;-74
2022/03/09 01:41:47;;;;;;;7.82;5.05;;;0.70;99.90;;;;;;5097332;28;20407;-75
2022/03/09 01:44:15;;;;;;;7.57;4.60;;;0.70;99.90;;;;;;5097279;28;20044;-75
2022/03/09 01:46:42;;;;;;;9.02;4.93;;;0.70;99.90;;;;;;5097132;28;20058;-75
2022/03/09 01:49:09;;;;;;;8.73;4.90;;;0.70;99.90;;;;;;5097139;28;20080;-74
2022/03/09 01:51:40;;;;;;;7.35;4.90;;;0.60;99.90;;;;;;5096217;28;20069;-75
2022/03/09 01:54:06;;;;;;;13.05;5.00;;;0.50;99.90;;;;;;5097051;28;20518;-74
2022/03/09 01:56:33;;;;;;;7.38;5.03;;;0.60;99.90;;;;;;5096899;28;20044;-74
2022/03/09 01:59:02;;;;;;;10.48;5.85;;;0.60;99.90;;;;;;5096955;28;20392;-75
2022/03/09 02:01:27;;;;;;;9.25;4.78;;;0.50;99.90;;;;;;5096929;28;20048;-74
2022/03/09 02:03:53;;;;;;;7.85;4.80;;;0.50;99.90;;;;;;5096918;28;20044;-74
2022/03/09 02:06:18;;;;;;;8.77;5.32;;;0.50;99.90;;;;;;5096798;28;20123;-74
2022/03/09 02:11:31;;;;;;;8.55;5.03;;;0.50;99.90;;;;;;5096814;28;20056;-74
2022/03/09 02:13:57;;;;;;;10.93;5.65;;;0.60;99.90;;;;;;5095899;28;20096;-73
2022/03/09 02:16:22;;;;;;;9.38;5.38;;;0.50;99.90;;;;;;5095533;28;20062;-75
2022/03/09 02:18:48;;;;;;;7.88;5.22;;;0.50;99.90;;;;;;5095458;28;20052;-73
2022/03/09 02:21:15;;;;;;;9.15;5.45;;;0.40;99.90;;;;;;5095388;28;20050;-74
2022/03/09 02:23:41;;;;;;;9.95;5.03;;;0.40;99.90;;;;;;5095412;28;20048;-75
2022/03/09 02:26:07;;;;;;;10.98;5.80;;;0.40;99.90;;;;;;5095749;28;20106;-75
2022/03/09 02:28:46;;;;;;;8.35;5.13;;;0.40;99.90;;;;;;5095621;28;20040;-75
2022/03/09 02:31:12;;;;;;;10.57;5.78;;;0.30;99.90;;;;;;5094024;28;20040;-74
2022/03/09 02:33:37;;;;;;;8.30;5.13;;;0.40;99.90;;;;;;5095234;28;20055;-74
2022/03/09 02:36:04;;;;;;;8.57;4.90;;;0.30;99.90;;;;;;5094779;28;20481;-74
2022/03/09 02:38:29;;;;;;;10.20;5.10;;;0.30;99.90;;;;;;5094232;28;20047;-74
2022/03/09 02:40:55;;;;;;;9.05;5.30;;;0.30;99.90;;;;;;5095101;28;20754;-75
2022/03/09 02:43:21;;;;;;;8.82;5.80;;;0.20;99.90;;;;;;5095048;28;20040;-74
2022/03/09 02:45:46;;;;;;;9.57;5.53;;;0.20;99.90;;;;;;5094816;28;20043;-75
2022/03/09 02:48:12;;;;;;;10.85;5.50;;;0.20;99.90;;;;;;5095148;28;20044;-74
2022/03/09 02:50:37;;;;;;;8.75;5.43;;;0.20;99.90;;;;;;5095127;28;20491;-74
2022/03/09 02:53:03;;;;;;;10.40;5.80;;;0.10;99.90;;;;;;5094901;28;20044;-74
2022/03/09 02:55:29;;;;;;;10.60;6.38;;;0.10;99.90;;;;;;5095298;28;20545;-76
2022/03/09 02:57:54;;;;;;;11.30;6.28;;;0.00;99.90;;;;;;5094791;28;20052;-74
2022/03/09 03:00:20;;;;;;;8.15;5.63;;;0.00;99.90;;;;;;5094700;28;20040;-74
2022/03/09 03:02:45;;;;;;;9.90;5.72;;;-0.10;99.90;;;;;;5094733;28;20047;-75
2022/03/09 03:05:11;;;;;;;9.63;5.88;;;-0.10;99.90;;;;;;5094722;28;20101;-74
2022/03/09 03:07:36;;;;;;;10.82;5.95;;;-0.10;99.90;;;;;;5093179;28;20472;-75
2022/03/09 03:10:03;;;;;;;8.50;5.53;;;-0.10;99.90;;;;;;5094543;28;20051;-74
2022/03/09 03:12:29;;;;;;;10.70;5.97;;;-0.10;99.90;;;;;;5057588;28;1032539;-74
2022/03/09 03:14:55;;;;;;;9.32;5.68;;;0.00;99.90;;;;;;5094342;28;20131;-74
2022/03/09 03:17:21;;;;;;;10.77;5.53;;;-0.10;99.90;;;;;;5094462;28;20177;-74
2022/03/09 03:19:47;;;;;;;9.25;5.60;;;-0.10;99.90;;;;;;5095781;28;20127;-74
2022/03/09 03:22:12;;;;;;;12.82;5.93;;;-0.10;99.90;;;;;;5095347;28;20075;-74
2022/03/09 03:24:38;;;;;;;12.65;6.15;;;-0.10;99.90;;;;;;5095157;28;20040;-75
2022/03/09 03:27:03;;;;;;;11.85;5.45;;;-0.10;99.90;;;;;;5095374;28;20047;-75
2022/03/09 03:29:29;;;;;;;10.02;5.45;;;-0.10;99.90;;;;;;5095193;28;20039;-74
2022/03/09 03:31:55;;;;;;;9.43;6.00;;;-0.10;99.90;;;;;;5095272;28;20047;-74
2022/03/09 03:34:20;;;;;;;10.65;5.25;;;-0.20;99.90;;;;;;5095243;28;20127;-74
2022/03/09 03:36:46;;;;;;;9.45;5.90;;;-0.20;99.90;;;;;;5095019;28;20388;-74
2022/03/09 03:39:13;;;;;;;9.90;6.40;;;-0.20;99.90;;;;;;5095150;28;20043;-74
2022/03/09 03:41:39;;;;;;;10.13;5.72;;;-0.30;99.90;;;;;;5077966;28;20090;-74
2022/03/09 03:44:04;;;;;;;10.85;5.47;;;-0.30;99.90;;;;;;5093815;28;20079;-74
2022/03/09 03:46:30;;;;;;;9.98;5.80;;;-0.30;99.90;;;;;;5094472;28;20472;-74
2022/03/09 03:48:56;;;;;;;9.98;5.90;;;-0.30;99.90;;;;;;5093506;28;20040;-75
2022/03/09 03:51:21;;;;;;;10.95;5.45;;;-0.30;99.90;;;;;;5093895;28;20048;-74
2022/03/09 03:53:47;;;;;;;8.60;5.40;;;-0.40;99.90;;;;;;5094870;28;20047;-74
2022/03/09 03:56:12;;;;;;;10.43;5.63;;;-0.40;99.90;;;;;;5094757;28;20047;-74
2022/03/09 03:58:38;;;;;;;11.13;6.45;;;-0.30;99.90;;;;;;5094643;28;20054;-74
2022/03/09 04:01:04;;;;;;;11.98;6.47;;;-0.30;99.90;;;;;;5093085;28;20044;-74
2022/03/09 04:03:29;;;;;;;9.13;5.57;;;-0.30;99.90;;;;;;5094981;28;20055;-74
2022/03/09 04:05:55;;;;;;;10.45;5.72;;;-0.10;99.90;;;;;;5094279;28;20514;-75
2022/03/09 04:08:20;;;;;;;12.32;6.47;;;-0.20;99.90;;;;;;5093605;28;20456;-75
2022/03/09 04:10:47;;;;;;;14.05;5.80;;;-0.20;99.90;;;;;;5094876;28;20046;-74
2022/03/09 04:13:13;;;;;;;10.27;5.22;;;-0.20;99.90;;;;;;5093305;28;20058;-74
2022/03/09 04:15:38;;;;;;;10.05;5.80;;;-0.10;99.90;;;;;;5094229;28;20048;-75
2022/03/09 04:18:04;;;;;;;9.93;5.60;;;-0.10;99.90;;;;;;5093150;28;20097;-75
2022/03/09 04:20:29;;;;;;;9.43;5.72;;;-0.10;99.90;;;;;;5094296;28;20036;-74
2022/03/09 04:22:55;;;;;;;9.20;5.72;;;-0.10;99.90;;;;;;5094301;28;20442;-75
2022/03/09 04:25:21;;;;;;;12.13;5.57;;;-0.10;99.90;;;;;;5094239;28;20048;-75
2022/03/09 04:27:46;;;;;;;10.65;5.88;;;-0.10;99.90;;;;;;5093967;28;20048;-74
2022/03/09 04:30:12;;;;;;;9.13;5.47;;;-0.20;99.90;;;;;;5094121;28;20051;-74
2022/03/09 04:32:38;;;;;;;10.00;5.68;;;-0.20;99.90;;;;;;5094178;28;20087;-75
2022/03/09 04:35:05;;;;;;;8.68;5.50;;;-0.10;99.90;;;;;;5093013;28;20044;-75
2022/03/09 04:37:30;;;;;;;;;;;-0.20;99.90;;;;;;5094384;28;20044;-74
2022/03/09 04:40:05;;;;;;;10.90;5.25;;;-0.30;99.90;;;;;;5094407;28;19927;-74
2022/03/09 04:42:31;;;;;;;11.55;5.32;;;-0.30;99.90;;;;;;5093966;28;20055;-73
2022/03/09 04:44:57;;;;;;;9.25;5.60;;;-0.30;99.90;;;;;;5093006;28;20048;-74
2022/03/09 04:47:23;;;;;;;9.65;5.72;;;-0.40;99.90;;;;;;5093918;28;20067;-75
2022/03/09 04:49:50;;;;;;;11.48;5.82;;;-0.30;99.90;;;;;;5093845;28;20076;-75
2022/03/09 04:52:16;;;;;;;8.98;5.88;;;0.10;99.90;;;;;;5092932;28;20132;-75
2022/03/09 04:54:42;;;;;;;8.95;5.80;;;-0.30;99.90;;;;;;5093912;28;20084;-75
2022/03/09 04:57:07;;;;;;;9.73;5.32;;;-0.30;99.90;;;;;;5093807;28;20116;-75
2022/03/09 04:59:33;;;;;;;14.50;5.47;;;-0.30;99.90;;;;;;5092604;28;20437;-75
2022/03/09 05:01:58;;;;;;;9.80;6.10;;;-0.30;99.90;;;;;;5093748;28;20434;-74
2022/03/09 05:04:24;;;;;;;12.13;5.78;;;-0.20;99.90;;;;;;5093733;28;20426;-75
2022/03/09 05:06:50;;;;;;;7.57;5.47;;;-0.30;99.90;;;;;;5093762;28;20044;-74
2022/03/09 05:09:15;;;;;;;10.13;5.35;;;-0.20;99.90;;;;;;5092546;28;20072;-75
2022/03/09 05:11:41;;;;;;;10.50;5.50;;;-0.30;99.90;;;;;;5093732;28;20040;-74
2022/03/09 05:14:06;;;;;;;13.27;5.90;;;-0.30;99.90;;;;;;5093326;28;20508;-74
2022/03/09 05:16:32;;;;;;;11.45;6.45;;;-0.20;99.90;;;;;;5093855;28;20464;-74
2022/03/09 05:18:57;;;;;;;10.25;6.13;;;-0.20;99.90;;;;;;5093651;28;20066;-74
2022/03/09 05:21:23;;;;;;;10.20;5.53;;;-0.30;99.90;;;;;;5093555;28;20098;-74
2022/03/09 05:23:49;;;;;;;10.93;5.20;;;-0.30;99.90;;;;;;5093575;28;20044;-75
2022/03/09 05:26:14;;;;;;;10.35;6.20;;;-0.30;99.90;;;;;;5093814;28;20044;-75
2022/03/09 05:28:40;;;;;;;10.98;6.03;;;-0.20;99.90;;;;;;5092240;28;20046;-75
2022/03/09 05:31:05;;;;;;;13.20;6.70;;;-0.30;99.90;;;;;;5092302;28;20079;-75
2022/03/09 05:33:31;;;;;;;9.40;5.82;;;-0.30;99.90;;;;;;5093513;28;20126;-75
2022/03/09 05:35:57;;;;;;;13.07;6.97;;;-0.30;99.90;;;;;;5092452;28;20109;-74
2022/03/09 05:38:22;;;;;;;10.57;6.13;;;-0.40;99.90;;;;;;5093466;28;20157;-74
2022/03/09 05:40:48;;;;;;;8.93;5.57;;;-0.40;99.90;;;;;;5092144;28;20044;-74
2022/03/09 05:43:13;;;;;;;11.70;6.40;;;-0.40;99.90;;;;;;5093429;28;20040;-74
2022/03/09 05:45:39;;;;;;;11.00;6.18;;;-0.40;99.90;;;;;;5109321;28;20048;-75
2022/03/09 05:48:05;;;;;;;11.10;6.43;;;-0.50;99.90;;;;;;5092091;28;20131;-74
2022/03/09 05:50:30;;;;;;;13.45;7.40;;;-0.40;99.90;;;;;;5093117;28;20040;-74
2022/03/09 05:52:56;;;;;;;13.80;8.27;;;-0.50;99.90;;;;;;5093244;28;20127;-75
2022/03/09 05:55:22;;;;;;;17.17;8.05;;;-0.60;99.90;;;;;;5093638;28;20123;-74
2022/03/09 05:57:48;;;;;;;16.83;8.13;;;-0.60;99.90;;;;;;5093272;28;20108;-74
2022/03/09 06:00:14;;;;;;;21.15;10.45;;;-0.70;99.90;;;;;;5093251;28;20040;-75
2022/03/09 06:02:40;;;;;;;27.30;11.10;;;-0.70;99.90;;;;;;5093495;28;20388;-74
2022/03/09 06:05:06;;;;;;;21.65;10.93;;;-0.70;99.90;;;;;;5093197;28;20127;-74
2022/03/09 06:07:32;;;;;;;22.33;10.93;;;-0.80;99.90;;;;;;5093706;28;20055;-74
2022/03/09 06:09:58;;;;;;;21.10;10.82;;;-0.80;99.90;;;;;;5109893;28;20044;-78
2022/03/09 06:12:23;;;;;;;19.17;10.30;;;-0.80;99.90;;;;;;5113060;28;20111;-77
2022/03/09 06:14:49;;;;;;;23.75;10.40;;;-0.80;99.90;;;;;;5096588;28;20480;-75
2022/03/09 06:17:14;;;;;;;15.70;8.93;;;-0.90;99.90;;;;;;5096845;28;20040;-78
2022/03/09 06:19:40;;;;;;;17.83;8.77;;;-0.80;99.90;;;;;;5096732;28;20076;-77
2022/03/09 06:22:06;;;;;;;15.02;8.10;;;-0.90;99.90;;;;;;5095637;28;20077;-75
2022/03/09 06:24:31;;;;;;;16.65;8.05;;;-0.90;99.90;;;;;;5096597;28;20496;-76
2022/03/09 06:26:57;;;;;;;16.80;7.88;;;-0.90;99.90;;;;;;5097545;28;20044;-75
2022/03/09 06:29:22;;;;;;;14.82;7.65;;;-0.90;99.90;;;;;;5096382;28;20507;-74
2022/03/09 06:31:48;;;;;;;14.15;7.20;;;-0.90;99.90;;;;;;5096325;28;20189;-75
2022/03/09 06:34:14;;;;;;;13.65;8.20;;;-0.80;99.90;;;;;;5096349;28;20040;-73
2022/03/09 06:36:44;;;;;;;12.52;7.43;;;-0.80;99.90;;;;;;5096211;28;20084;-74
2022/03/09 06:39:12;;;;;;;15.52;7.82;;;-0.80;99.90;;;;;;5096157;28;20079;-74
2022/03/09 06:41:41;;;;;;;14.95;7.10;;;-0.80;99.90;;;;;;5096219;28;20052;-74
2022/03/09 06:44:07;;;;;;;12.90;6.65;;;-0.80;99.90;;;;;;5096227;28;20070;-76
2022/03/09 06:46:33;;;;;;;16.67;7.45;;;-0.80;99.90;;;;;;5094821;28;20044;-75
2022/03/09 06:48:58;;;;;;;12.63;6.70;;;-0.80;99.90;;;;;;5096026;28;20040;-73
2022/03/09 06:51:24;;;;;;;15.48;7.18;;;-0.70;99.90;;;;;;5096055;28;20463;-73
2022/03/09 06:53:49;;;;;;;15.07;7.60;;;-0.70;99.90;;;;;;5096022;28;20047;-75
2022/03/09 06:56:18;;;;;;;12.30;6.53;;;-0.70;99.90;;;;;;5095935;28;20047;-75
2022/03/09 06:58:45;;;;;;;14.50;7.40;;;-0.60;99.90;;;;;;5095866;28;20130;-75
2022/03/09 07:01:11;;;;;;;10.52;6.53;;;-0.60;99.90;;;;;;5095862;28;20044;-74
2022/03/09 07:03:37;;;;;;;16.80;6.88;;;0.10;99.90;;;;;;5095807;28;20066;-75
2022/03/09 07:06:03;;;;;;;13.93;6.90;;;-0.50;99.90;;;;;;5095754;28;20044;-73
2022/03/09 07:08:28;;;;;;;11.90;7.10;;;-0.40;99.90;;;;;;5095806;28;20043;-75
2022/03/09 07:10:54;;;;;;;13.93;6.20;;;-0.30;99.90;;;;;;5095628;28;20035;-76
2022/03/09 07:13:19;;;;;;;22.70;7.57;;;-0.20;99.90;;;;;;5095321;28;20056;-75
2022/03/09 07:15:45;;;;;;;12.20;6.63;;;-0.10;99.90;;;;;;5095494;28;20082;-73
2022/03/09 07:18:11;;;;;;;13.23;5.85;;;0.00;99.90;;;;;;5095396;28;20529;-75
2022/03/09 07:20:36;;;;;;;15.55;6.18;;;0.10;99.90;;;;;;5095009;28;20043;-73
2022/03/09 07:23:02;;;;;;;14.20;6.60;;;0.20;99.90;;;;;;5093180;28;20075;-73
2022/03/09 07:25:28;;;;;;;11.50;6.35;;;0.30;99.90;;;;;;5093102;28;20488;-75
2022/03/09 07:27:53;;;;;;;13.02;6.88;;;0.40;99.90;;;;;;5094858;28;20075;-73
2022/03/09 07:30:19;;;;;;;18.50;6.97;;;0.50;99.90;;;;;;5095188;28;20123;-73
2022/03/09 07:32:45;;;;;;;12.95;6.45;;;0.70;99.90;;;;;;5093984;28;20036;-75
2022/03/09 07:35:11;;;;;;;16.15;7.22;;;0.80;99.90;;;;;;5093877;28;20040;-74
2022/03/09 07:37:37;;;;;;;14.50;6.63;;;0.90;99.90;;;;;;5093457;28;20137;-74
2022/03/09 07:40:05;;;;;;;10.70;6.45;;;1.10;99.90;;;;;;5094765;28;20094;-73
2022/03/09 07:42:31;;;;;;;14.38;6.18;;;1.20;99.90;;;;;;5094570;28;20052;-73
2022/03/09 07:44:56;;;;;;;12.82;7.13;;;1.40;99.90;;;;;;5094637;28;20149;-74
2022/03/09 07:47:22;;;;;;;13.90;6.63;;;1.50;99.90;;;;;;5093793;28;20044;-74
2022/03/09 07:49:47;;;;;;;13.90;7.15;;;1.60;99.90;;;;;;5093067;28;20046;-75
2022/03/09 07:52:13;;;;;;;16.25;7.60;;;1.70;99.90;;;;;;5094601;28;20044;-74
2022/03/09 07:54:39;;;;;;;14.88;6.50;;;1.80;99.90;;;;;;5093357;28;20051;-75
2022/03/09 07:57:04;;;;;;;10.68;6.45;;;1.90;99.90;;;;;;5094566;28;20048;-74
2022/03/09 07:59:30;;;;;;;22.33;6.75;;;2.10;99.90;;;;;;5093605;28;20491;-75
2022/03/09 08:01:55;;;;;;;12.73;7.05;;;2.30;99.90;;;;;;5076587;28;20388;-75
2022/03/09 08:04:23;;;;;;;9.35;6.25;;;2.40;99.90;;;;;;5094131;28;20036;-74
2022/03/09 08:06:49;;;;;;;10.88;5.85;;;2.50;99.90;;;;;;5094345;28;20052;-75
2022/03/09 08:09:15;;;;;;;9.07;5.80;;;2.60;99.90;;;;;;5093352;28;20504;-75
2022/03/09 08:11:41;;;;;;;10.55;6.25;;;2.70;99.90;;;;;;5094202;28;20122;-74
2022/03/09 08:14:06;;;;;;;13.82;5.97;;;2.90;99.90;;;;;;5094620;28;20377;-75
2022/03/09 08:16:32;;;;;;;10.80;6.40;;;3.00;99.90;;;;;;5094194;28;20051;-74
2022/03/09 08:18:57;;;;;;;12.88;5.95;;;3.10;99.90;;;;;;5092943;28;20382;-75
2022/03/09 08:21:23;;;;;;;11.93;6.40;;;3.20;99.90;;;;;;5094201;28;20123;-75
2022/03/09 08:23:48;;;;;;;12.77;6.40;;;3.30;99.90;;;;;;5094031;28;20047;-75
2022/03/09 08:26:15;;;;;;;11.63;6.47;;;3.50;99.90;;;;;;5093851;28;20472;-75
2022/03/09 08:28:40;;;;;;;10.52;6.13;;;3.60;99.90;;;;;;5093843;28;20044;-75
2022/03/09 08:31:06;;;;;;;10.80;5.65;;;3.60;99.90;;;;;;5093910;28;20044;-75
2022/03/09 08:33:31;;;;;;;10.07;5.72;;;3.70;99.90;;;;;;5093486;28;20046;-75
2022/03/09 08:35:57;;;;;;;12.13;6.03;;;4.10;99.90;;;;;;5093860;28;20051;-74
2022/03/09 08:38:23;;;;;;;9.43;6.07;;;3.90;99.90;;;;;;5094078;28;20044;-75
2022/03/09 08:40:49;;;;;;;12.07;6.38;;;4.00;99.90;;;;;;5093506;28;20040;-75
2022/03/09 08:43:14;;;;;;;10.03;5.40;;;4.10;99.90;;;;;;5093798;28;20064;-76
2022/03/09 08:45:40;;;;;;;11.60;5.88;;;4.20;99.90;;;;;;5093510;28;20401;-75
2022/03/09 08:48:06;;;;;;;10.38;5.97;;;4.30;99.90;;;;;;5093647;28;20036;-75
2022/03/09 08:50:31;;;;;;;10.90;6.00;;;4.40;99.90;;;;;;5092450;28;20130;-75
2022/03/09 08:52:58;;;;;;;9.88;6.20;;;4.50;99.90;;;;;;5092466;28;20052;-76
2022/03/09 08:55:23;;;;;;;9.85;5.90;;;4.60;99.90;;;;;;5093602;28;20089;-76
2022/03/09 08:57:49;;;;;;;9.57;6.20;;;4.80;99.90;;;;;;5093721;28;20126;-75
2022/03/09 09:00:15;;;;;;;9.27;5.97;;;4.90;99.90;;;;;;5093606;28;20040;-75
2022/03/09 09:02:41;;;;;;;9.63;5.90;;;5.00;99.90;;;;;;5093492;28;20036;-76
2022/03/09 09:05:07;;;;;;;13.38;6.18;;;5.10;99.90;;;;;;5093410;28;20178;-76
2022/03/09 09:07:32;;;;;;;11.40;6.28;;;5.30;99.90;;;;;;5093549;28;20055;-76
2022/03/09 09:09:58;;;;;;;8.57;5.57;;;5.40;99.90;;;;;;5092239;28;20040;-75
2022/03/09 09:12:23;;;;;;;8.90;5.53;;;5.60;99.90;;;;;;5093407;28;20055;-76
2022/03/09 09:14:49;;;;;;;12.27;5.75;;;5.70;99.90;;;;;;5092605;28;20476;-76
2022/03/09 09:17:15;;;;;;;8.77;5.65;;;5.90;99.90;;;;;;5093300;28;20109;-76
2022/03/09 09:19:41;;;;;;;9.77;5.28;;;6.10;99.90;;;;;;5093309;28;20465;-76
2022/03/09 09:22:06;;;;;;;11.60;5.32;;;6.20;99.90;;;;;;5092469;28;20396;-76
2022/03/09 09:24:32;;;;;;;7.68;5.05;;;6.30;99.90;;;;;;5093019;28;20082;-75
2022/03/09 09:26:58;;;;;;;9.10;5.70;;;6.40;99.90;;;;;;5093366;28;20051;-76
2022/03/09 09:29:24;;;;;;;11.32;5.72;;;6.50;99.90;;;;;;5093232;28;20040;-74
2022/03/09 09:31:50;;;;;;;9.80;5.20;;;6.60;99.90;;;;;;5092958;28;20495;-77
2022/03/09 09:34:16;;;;;;;9.93;6.18;;;6.70;99.90;;;;;;5092869;28;20385;-77
2022/03/09 09:36:45;;;;;;;7.67;5.17;;;6.70;99.90;;;;;;5092959;28;20044;-76
2022/03/09 09:39:13;;;;;;;10.32;5.93;;;6.90;99.70;;;;;;5093236;28;20292;-76
2022/03/09 09:41:44;;;;;;;9.30;5.18;;;7.00;99.90;;;;;;5091809;28;20055;-75
2022/03/09 09:44:13;;;;;;;10.75;5.25;;;7.00;99.40;;;;;;5093229;28;20130;-76
2022/03/09 09:46:41;;;;;;;10.80;4.72;;;7.10;98.00;;;;;;5094722;28;20047;-77
2022/03/09 09:49:14;;;;;;;8.32;5.75;;;7.20;98.20;;;;;;5096977;28;20496;-76
2022/03/09 09:51:42;;;;;;;8.52;5.65;;;7.20;98.00;;;;;;5097095;28;20391;-77
2022/03/09 09:54:08;;;;;;;10.85;5.65;;;7.30;97.20;;;;;;5095849;28;20055;-76
2022/03/09 09:56:38;;;;;;;8.65;5.53;;;7.40;98.20;;;;;;5096882;28;20051;-76
2022/03/09 09:59:05;;;;;;;8.70;5.45;;;7.50;97.70;;;;;;5096511;28;20561;-74
2022/03/09 10:01:31;;;;;;;8.98;5.55;;;7.50;96.90;;;;;;5096479;28;20044;-77
2022/03/09 10:03:57;;;;;;;8.13;5.80;;;7.50;97.40;;;;;;5096728;28;20108;-76
2022/03/09 10:06:22;;;;;;;10.95;5.68;;;7.60;97.10;;;;;;5096567;28;20572;-76
2022/03/09 10:09:11;;;;;;;10.57;5.95;;;7.60;96.70;;;;;;5096684;28;20495;-75
2022/03/09 10:11:49;;;;;;;11.02;5.90;;;7.70;97.40;;;;;;5096607;28;20048;-75
2022/03/09 10:14:16;;;;;;;;;;;7.80;97.10;;;;;;5096928;28;20059;-76
2022/03/09 10:17:00;;;;;;;9.43;6.18;;;7.90;96.60;;;;;;5096573;28;19920;-77
2022/03/09 10:19:35;;;;;;;10.68;6.20;;;7.90;96.70;;;;;;5096512;28;20051;-76
2022/03/09 10:22:27;;;;;;;13.02;6.25;;;8.00;96.20;;;;;;5096596;28;20430;-76
2022/03/09 10:24:54;;;;;;;11.02;5.28;;;8.10;96.50;;;;;;5096454;28;20036;-75
2022/03/09 10:27:42;;;;;;;10.43;5.70;;;8.20;96.00;;;;;;5096350;28;20044;-76
2022/03/09 10:30:16;;;;;;;11.30;5.95;;;8.30;95.40;;;;;;5095839;28;20040;-76
2022/03/09 10:32:57;;;;;;;11.18;5.63;;;8.40;95.10;;;;;;5095808;28;20504;-77
2022/03/09 10:35:31;;;;;;;8.98;6.07;;;8.40;95.80;;;;;;5096097;28;20044;-76
2022/03/09 10:38:05;;;;;;;10.05;5.70;;;8.40;94.20;;;;;;5096225;28;20134;-75
2022/03/09 10:40:38;;;;;;;9.13;5.72;;;8.50;95.20;;;;;;5096050;28;20472;-78
2022/03/09 10:43:16;;;;;;;10.30;6.30;;;8.40;95.10;;;;;;5095672;28;20530;-76
2022/03/09 10:46:00;;;;;;;;;;;8.70;94.90;;;;;;5096678;28;20043;-76
2022/03/09 10:48:27;;;;;;;9.18;5.70;;;8.80;94.40;;;;;;5095773;28;20425;-77
2022/03/09 10:50:54;;;;;;;10.27;6.18;;;8.80;94.00;;;;;;5095590;28;20119;-76
2022/03/09 10:53:20;;;;;;;9.45;5.72;;;9.00;94.60;;;;;;5095884;28;20063;-77
2022/03/09 10:55:47;;;;;;;11.85;6.15;;;9.10;94.40;;;;;;5095559;28;20052;-76
2022/03/09 10:58:22;;;;;;;9.07;5.97;;;9.20;95.40;;;;;;5095606;28;20399;-77
2022/03/09 11:00:55;;;;;;;9.80;6.00;;;9.30;93.30;;;;;;5095635;28;20480;-76
2022/03/09 11:03:23;;;;;;;9.00;6.13;;;9.30;92.90;;;;;;5095628;28;20044;-77
2022/03/09 11:05:59;;;;;;;7.93;5.63;;;9.40;93.40;;;;;;5095550;28;20123;-77
2022/03/09 11:08:27;;;;;;;11.10;6.28;;;9.60;92.30;;;;;;5095493;28;20468;-76
2022/03/09 11:10:55;;;;;;;11.23;5.70;;;9.70;92.50;;;;;;5094259;28;20075;-75
2022/03/09 11:13:22;;;;;;;9.00;5.65;;;9.80;93.20;;;;;;5087028;28;20122;-76
2022/03/09 11:15:48;;;;;;;9.70;5.60;;;9.90;93.10;;;;;;5075384;28;20052;-75
2022/03/09 11:18:18;;;;;;;10.63;5.78;;;9.90;92.20;;;;;;5075404;28;20072;-76
2022/03/09 11:20:45;;;;;;;11.20;6.38;;;10.00;92.60;;;;;;5075198;28;20032;-75
2022/03/09 11:23:11;;;;;;;;;;;10.20;91.80;;;;;;5075567;28;20044;-73
2022/03/09 11:25:38;;;;;;;9.80;6.00;;;10.20;92.10;;;;;;5075126;28;19928;-75
2022/03/09 11:28:05;;;;;;;10.52;6.43;;;10.20;91.50;;;;;;5075054;28;20049;-76
2022/03/09 11:30:33;;;;;;;9.15;6.03;;;10.30;91.90;;;;;;5074958;28;20043;-77
2022/03/09 11:33:00;;;;;;;10.20;6.05;;;10.40;91.70;;;;;;5074948;28;20480;-81
2022/03/09 11:35:36;;;;;;;9.27;5.90;;;10.40;90.60;;;;;;5074959;28;20041;-77
2022/03/09 11:38:23;;;;;;;9.23;6.32;;;10.50;90.80;;;;;;5074897;28;20405;-76
2022/03/09 11:41:14;;;;;;;9.95;6.50;;;10.60;90.60;;;;;;5074788;28;20041;-76
2022/03/09 11:43:40;;;;;;;10.07;6.10;;;10.70;90.20;;;;;;5074755;28;20128;-76
2022/03/09 11:46:06;;;;;;;11.68;6.57;;;10.80;90.00;;;;;;5074676;28;20123;-76
2022/03/09 11:48:58;;;;;;;7.95;5.38;;;10.80;90.40;;;;;;5074520;28;20503;-78
2022/03/09 11:51:29;;;;;;;9.10;6.18;;;10.80;86.80;;;;;;5074826;28;20040;-77
2022/03/09 11:53:59;;;;;;;8.50;6.07;;;11.00;89.50;;;;;;5074800;28;20442;-78
2022/03/09 11:56:33;;;;;;;10.90;5.95;;;11.00;87.90;;;;;;5074395;28;20089;-77
2022/03/09 11:59:18;;;;;;;10.40;6.78;;;11.00;87.60;;;;;;5074526;28;20041;-78
2022/03/09 12:02:00;;;;;;;9.48;5.93;;;11.10;87.80;;;;;;5074690;28;20086;-75
2022/03/09 12:04:40;;;;;;;9.35;6.38;;;11.00;84.40;;;;;;5074466;28;20131;-77
2022/03/09 12:07:10;;;;;;;9.85;6.30;;;11.10;84.30;;;;;;5074380;28;20045;-77
2022/03/09 12:09:56;;;;;;;11.35;7.07;;;11.20;84.50;;;;;;5073743;28;20045;-76
2022/03/09 12:12:22;;;;;;;11.20;6.57;;;11.30;83.30;;;;;;5073911;28;20135;-78
2022/03/09 12:15:08;;;;;;;8.80;6.43;;;11.30;82.50;;;;;;5074234;28;20131;-77
2022/03/09 12:17:38;;;;;;;10.57;7.05;;;11.30;81.30;;;;;;5073882;28;20573;-75
2022/03/09 12:20:23;;;;;;;9.40;6.22;;;11.40;83.20;;;;;;5074196;28;20043;-77
2022/03/09 12:22:55;;;;;;;8.82;5.88;;;11.40;80.60;;;;;;5074059;28;20496;-75
2022/03/09 12:25:47;;;;;;;8.80;6.63;;;11.40;81.10;;;;;;5072558;28;20503;-76
2022/03/09 12:28:21;;;;;;;10.25;6.00;;;11.50;79.00;;;;;;5073998;28;20044;-78
2022/03/09 12:30:48;;;;;;;8.68;6.28;;;11.60;80.20;;;;;;5073894;28;20036;-76
2022/03/09 12:33:40;;;;;;;13.68;7.10;;;11.70;80.80;;;;;;5073958;28;20045;-76
2022/03/09 12:36:15;;;;;;;11.82;6.47;;;11.80;82.00;;;;;;5073924;28;20049;-77
2022/03/09 12:38:43;;;;;;;10.73;6.30;;;11.90;81.60;;;;;;5073908;28;20048;-77
2022/03/09 12:41:30;;;;;;;9.30;6.20;;;12.00;78.50;;;;;;5073790;28;20044;-76
2022/03/09 12:44:01;;;;;;;8.23;6.07;;;12.00;78.30;;;;;;5072816;28;20051;-76
2022/03/09 12:46:28;;;;;;;10.25;6.43;;;11.90;77.80;;;;;;5073791;28;20131;-77
2022/03/09 12:49:05;;;;;;;9.77;6.57;;;11.90;77.30;;;;;;5073800;28;20391;-78
2022/03/09 12:51:32;;;;;;;9.95;6.88;;;12.00;79.80;;;;;;5074094;28;20128;-77
2022/03/09 12:53:57;;;;;;;9.38;5.80;;;12.00;78.10;;;;;;5073703;28;20044;-76